Time;durP1;ratioP1;P1;durP2;ratioP2;P2;SDS_P1;SDS_P2;PMS_P1;PMS_P2;Temp;Humidity;BMP_temperature;BMP_pressure;BME280_temperature;BME280_humidity;BME280_pressure;Samples;Min_cycle;Max_cycle;Signal;HPM_P1;HPM_P2
2023/09/22 00:01:16;;;;;;;2.28;1.38;;;14.10;99.90;;;;;;5079094;28;20487;-64
2023/09/22 00:03:42;;;;;;;2.80;1.83;;;14.20;99.90;;;;;;5080094;28;20479;-64
2023/09/22 00:06:09;;;;;;;2.85;2.15;;;14.20;99.90;;;;;;5096205;28;20093;-65
2023/09/22 00:08:34;;;;;;;3.60;2.38;;;14.20;99.90;;;;;;5100208;28;20051;-63
2023/09/22 00:11:00;;;;;;;5.55;2.60;;;14.20;99.90;;;;;;5094231;28;20050;-64
2023/09/22 00:13:26;;;;;;;3.30;1.55;;;14.30;99.90;;;;;;5097738;28;20464;-64
2023/09/22 00:15:51;;;;;;;4.05;2.55;;;14.30;99.90;;;;;;5097018;28;20482;-64
2023/09/22 00:18:17;;;;;;;3.55;2.13;;;14.30;99.90;;;;;;5102002;28;20114;-64
2023/09/22 00:20:43;;;;;;;4.05;2.58;;;14.30;99.90;;;;;;5095731;28;20036;-64
2023/09/22 00:23:08;;;;;;;3.65;1.83;;;14.30;99.90;;;;;;5113582;27;20105;-64
2023/09/22 00:25:34;;;;;;;3.75;2.22;;;14.30;99.90;;;;;;5097458;28;20067;-64
2023/09/22 00:28:00;;;;;;;5.20;2.22;;;14.30;99.90;;;;;;5094845;28;20040;-65
2023/09/22 00:30:26;;;;;;;3.53;2.20;;;14.30;99.90;;;;;;5096588;28;20039;-65
2023/09/22 00:32:52;;;;;;;3.75;2.80;;;14.30;99.90;;;;;;5096695;28;20043;-65
2023/09/22 00:35:18;;;;;;;3.13;1.95;;;14.30;99.90;;;;;;5098655;28;20027;-64
2023/09/22 00:37:43;;;;;;;2.95;2.08;;;14.30;99.90;;;;;;5091853;28;20058;-64
2023/09/22 00:40:09;;;;;;;5.30;2.00;;;14.30;99.90;;;;;;5100515;28;20043;-65
2023/09/22 00:42:35;;;;;;;3.97;1.92;;;14.30;99.90;;;;;;5099459;28;20058;-65
2023/09/22 00:45:01;;;;;;;3.70;2.47;;;14.30;99.90;;;;;;5095845;27;20480;-64
2023/09/22 00:47:27;;;;;;;2.80;1.88;;;14.30;99.90;;;;;;5098240;28;20343;-64
2023/09/22 00:49:54;;;;;;;2.47;1.45;;;14.30;99.90;;;;;;5094228;28;20044;-64
2023/09/22 00:52:22;;;;;;;2.67;1.98;;;14.30;99.90;;;;;;5090493;28;20036;-64
2023/09/22 00:54:51;;;;;;;2.85;1.85;;;14.40;99.90;;;;;;5097209;28;20040;-65
2023/09/22 00:57:17;;;;;;;2.75;2.15;;;14.40;99.90;;;;;;5094743;28;20127;-65
2023/09/22 00:59:45;;;;;;;5.63;2.22;;;14.30;99.90;;;;;;5101332;28;20044;-64
2023/09/22 01:02:11;;;;;;;3.47;2.38;;;14.30;99.90;;;;;;5082450;28;20027;-64
2023/09/22 01:04:37;;;;;;;2.28;1.77;;;14.40;99.90;;;;;;5100380;28;20116;-65
2023/09/22 01:07:03;;;;;;;3.00;2.08;;;14.30;99.90;;;;;;5099002;28;20066;-64
2023/09/22 01:09:29;;;;;;;2.67;1.45;;;14.40;99.90;;;;;;5079107;28;20051;-64
2023/09/22 01:11:55;;;;;;;7.97;2.38;;;14.30;99.90;;;;;;5101590;28;20406;-64
2023/09/22 01:14:21;;;;;;;2.50;2.10;;;14.30;99.90;;;;;;5099083;28;20536;-64
2023/09/22 01:16:48;;;;;;;3.70;2.40;;;14.30;99.90;;;;;;5097683;28;20116;-64
2023/09/22 01:19:17;;;;;;;4.90;2.88;;;14.40;99.90;;;;;;5097235;28;20040;-64
2023/09/22 01:21:44;;;;;;;2.95;1.90;;;14.30;99.90;;;;;;5100847;28;20035;-64
2023/09/22 01:24:11;;;;;;;2.38;1.70;;;14.30;99.90;;;;;;5093038;28;20476;-65
2023/09/22 01:26:38;;;;;;;3.53;2.10;;;14.30;99.90;;;;;;5080431;28;20048;-64
2023/09/22 01:29:04;;;;;;;3.35;2.63;;;14.30;99.90;;;;;;5100826;28;20032;-64
2023/09/22 01:31:30;;;;;;;3.85;2.80;;;14.30;99.90;;;;;;5098061;28;20036;-65
2023/09/22 01:33:56;;;;;;;3.05;2.08;;;14.30;99.90;;;;;;5114718;28;20334;-65
2023/09/22 01:36:22;;;;;;;4.75;2.83;;;14.30;99.90;;;;;;5095191;28;20119;-65
2023/09/22 01:38:48;;;;;;;2.22;1.55;;;14.20;99.90;;;;;;5081703;28;20032;-65
2023/09/22 01:41:13;;;;;;;2.55;1.67;;;14.10;99.90;;;;;;5111965;28;20040;-64
2023/09/22 01:43:40;;;;;;;2.90;2.17;;;14.10;99.90;;;;;;5094261;28;20048;-65
2023/09/22 01:46:09;;;;;;;3.08;2.03;;;14.10;99.90;;;;;;5097495;28;20480;-64
2023/09/22 01:48:34;;;;;;;6.07;2.60;;;14.00;99.90;;;;;;5101786;28;20036;-65
2023/09/22 01:51:04;;;;;;;3.08;2.20;;;14.00;99.90;;;;;;5099862;28;20032;-64
2023/09/22 01:53:30;;;;;;;3.53;2.05;;;14.00;99.90;;;;;;5099292;28;20403;-64
2023/09/22 01:55:56;;;;;;;3.60;2.42;;;14.00;99.90;;;;;;5099154;28;20071;-63
2023/09/22 01:58:21;;;;;;;4.57;1.92;;;13.90;99.90;;;;;;5104043;28;20036;-63
2023/09/22 02:00:50;;;;;;;3.40;2.60;;;13.90;99.90;;;;;;5095572;28;20062;-63
2023/09/22 02:03:17;;;;;;;3.72;2.00;;;13.80;99.90;;;;;;5082206;28;20101;-63
2023/09/22 02:05:43;;;;;;;4.28;2.03;;;13.80;99.90;;;;;;5081126;28;20392;-63
2023/09/22 02:08:09;;;;;;;3.38;2.20;;;13.80;99.90;;;;;;5103423;28;20476;-64
2023/09/22 02:10:35;;;;;;;5.13;2.80;;;13.90;99.90;;;;;;5100389;28;20081;-63
2023/09/22 02:13:01;;;;;;;5.82;2.92;;;13.90;99.90;;;;;;5115861;27;20039;-63
2023/09/22 02:15:27;;;;;;;3.85;2.58;;;13.90;99.90;;;;;;5102706;28;20023;-63
2023/09/22 02:17:53;;;;;;;3.22;2.17;;;13.90;99.90;;;;;;5101380;27;20490;-63
2023/09/22 02:20:22;;;;;;;3.80;2.72;;;13.90;99.90;;;;;;5102374;28;20032;-63
2023/09/22 02:22:56;;;;;;;2.55;1.88;;;13.80;99.90;;;;;;5101204;27;20408;-64
2023/09/22 02:25:23;;;;;;;3.40;2.63;;;13.80;99.90;;;;;;5102682;28;20040;-64
2023/09/22 02:27:51;;;;;;;2.95;1.67;;;13.70;99.90;;;;;;5081095;28;20364;-65
2023/09/22 02:30:17;;;;;;;3.65;2.20;;;13.70;99.90;;;;;;5101125;28;20044;-64
2023/09/22 02:32:49;;;;;;;4.95;1.90;;;13.60;99.90;;;;;;5099023;28;20039;-64
2023/09/22 02:35:18;;;;;;;3.20;1.83;;;13.60;99.90;;;;;;5103012;28;20384;-64
2023/09/22 02:37:44;;;;;;;4.43;2.13;;;13.60;99.90;;;;;;5094811;28;20468;-64
2023/09/22 02:40:14;;;;;;;5.03;2.25;;;13.60;99.90;;;;;;5102078;28;20035;-64
2023/09/22 02:42:40;;;;;;;4.78;2.63;;;13.60;99.90;;;;;;5084541;28;20064;-64
2023/09/22 02:45:08;;;;;;;2.40;1.80;;;13.60;99.90;;;;;;5098883;28;20040;-64
2023/09/22 02:47:38;;;;;;;3.80;2.40;;;13.60;99.90;;;;;;5098654;28;20119;-64
2023/09/22 02:50:05;;;;;;;3.83;2.05;;;13.60;99.90;;;;;;5103127;27;20104;-64
2023/09/22 02:52:33;;;;;;;2.65;2.10;;;13.60;99.90;;;;;;5104683;27;20036;-64
2023/09/22 02:54:58;;;;;;;4.90;2.15;;;13.60;99.90;;;;;;5099240;28;20039;-65
2023/09/22 02:57:25;;;;;;;4.63;2.42;;;13.70;99.90;;;;;;5098103;28;20054;-65
2023/09/22 02:59:52;;;;;;;4.93;2.97;;;13.60;99.90;;;;;;5104991;27;20096;-64
2023/09/22 03:02:18;;;;;;;4.47;2.50;;;13.70;99.90;;;;;;5086905;27;20389;-65
2023/09/22 03:04:44;;;;;;;3.90;2.17;;;13.70;99.90;;;;;;5100387;28;20105;-64
2023/09/22 03:07:09;;;;;;;4.45;2.80;;;13.60;99.90;;;;;;5100914;28;20031;-65
2023/09/22 03:09:36;;;;;;;4.38;2.88;;;13.60;99.90;;;;;;5100912;28;20110;-64
2023/09/22 03:12:02;;;;;;;3.88;2.17;;;13.70;99.90;;;;;;5101516;28;20086;-65
2023/09/22 03:14:27;;;;;;;4.63;2.67;;;13.60;99.90;;;;;;5100973;28;20074;-65
2023/09/22 03:16:53;;;;;;;4.85;2.60;;;13.60;99.90;;;;;;5103808;28;20032;-65
2023/09/22 03:19:19;;;;;;;3.75;2.60;;;13.60;99.90;;;;;;5097077;28;20029;-65
2023/09/22 03:21:45;;;;;;;5.25;3.13;;;13.60;99.90;;;;;;5098480;28;20032;-65
2023/09/22 03:24:10;;;;;;;4.18;3.05;;;13.60;99.90;;;;;;5102729;28;20081;-65
2023/09/22 03:26:36;;;;;;;3.30;2.08;;;13.50;99.90;;;;;;5094439;28;20040;-64
2023/09/22 03:29:03;;;;;;;4.32;2.38;;;13.60;99.90;;;;;;5078527;28;20043;-65
2023/09/22 03:31:28;;;;;;;2.30;1.73;;;13.50;99.90;;;;;;5098205;28;20040;-64
2023/09/22 03:33:54;;;;;;;2.90;1.85;;;13.50;99.90;;;;;;5093953;28;20101;-65
2023/09/22 03:36:20;;;;;;;2.33;1.40;;;13.60;99.90;;;;;;5094097;28;20062;-65
2023/09/22 03:38:48;;;;;;;4.35;2.30;;;13.50;99.90;;;;;;5092498;28;20036;-64
2023/09/22 03:41:16;;;;;;;4.22;1.63;;;13.50;99.90;;;;;;5099289;28;20483;-64
2023/09/22 03:43:45;;;;;;;2.47;1.67;;;13.50;99.90;;;;;;5110786;27;20044;-64
2023/09/22 03:46:11;;;;;;;5.28;2.22;;;13.50;99.90;;;;;;5100094;28;20391;-64
2023/09/22 03:48:37;;;;;;;2.90;1.83;;;13.50;99.90;;;;;;5097370;28;20119;-64
2023/09/22 03:51:04;;;;;;;2.97;1.90;;;13.60;99.90;;;;;;5077543;28;20051;-65
2023/09/22 03:53:30;;;;;;;6.50;2.72;;;13.60;99.90;;;;;;5097787;28;20620;-65
2023/09/22 03:55:55;;;;;;;2.75;1.70;;;13.50;99.90;;;;;;5100462;27;20032;-64
2023/09/22 03:58:21;;;;;;;7.97;2.50;;;13.50;99.90;;;;;;5097903;28;20437;-64
2023/09/22 04:00:47;;;;;;;4.20;2.33;;;13.50;99.90;;;;;;5099680;28;20036;-64
2023/09/22 04:03:13;;;;;;;3.38;2.42;;;13.50;99.90;;;;;;5098989;28;20031;-65
2023/09/22 04:05:39;;;;;;;4.75;2.20;;;13.50;99.90;;;;;;5101949;28;20490;-65
2023/09/22 04:08:05;;;;;;;4.70;2.65;;;13.50;99.90;;;;;;5094374;28;20346;-64
2023/09/22 04:10:34;;;;;;;4.35;2.65;;;13.50;99.90;;;;;;5096258;28;20047;-64
2023/09/22 04:13:00;;;;;;;9.82;2.55;;;13.50;99.90;;;;;;5112234;27;20046;-64
2023/09/22 04:15:26;;;;;;;3.58;2.28;;;13.50;99.90;;;;;;5082315;28;20036;-64
2023/09/22 04:17:52;;;;;;;3.22;1.83;;;13.50;99.90;;;;;;5112205;27;20410;-64
2023/09/22 04:20:28;;;;;;;6.55;3.10;;;13.40;99.90;;;;;;5078549;28;20605;-64
2023/09/22 04:22:58;;;;;;;5.82;3.05;;;13.40;99.90;;;;;;5097404;27;20157;-64
2023/09/22 04:25:31;;;;;;;4.00;2.65;;;13.30;99.90;;;;;;5096176;28;20028;-64
2023/09/22 04:28:07;;;;;;;4.13;2.60;;;13.30;99.90;;;;;;5077052;28;20050;-64
2023/09/22 04:30:38;;;;;;;2.90;1.95;;;13.30;99.90;;;;;;5091989;28;20059;-64
2023/09/22 04:33:04;;;;;;;3.55;2.33;;;13.30;99.90;;;;;;5096427;28;20031;-64
2023/09/22 04:35:32;;;;;;;6.00;3.63;;;13.20;99.90;;;;;;5096130;28;20032;-64
2023/09/22 04:38:01;;;;;;;5.07;2.95;;;13.10;99.90;;;;;;5092821;28;20418;-64
2023/09/22 04:40:34;;;;;;;4.93;2.50;;;13.10;99.90;;;;;;5077520;28;20036;-64
2023/09/22 04:43:01;;;;;;;5.32;2.47;;;13.00;99.90;;;;;;5091883;28;20108;-64
2023/09/22 04:45:26;;;;;;;4.68;2.92;;;12.90;99.90;;;;;;5095697;28;20118;-64
2023/09/22 04:47:52;;;;;;;4.53;2.53;;;12.90;99.90;;;;;;5094861;28;20527;-64
2023/09/22 04:50:19;;;;;;;5.20;2.72;;;12.90;99.90;;;;;;5095895;28;20040;-65
2023/09/22 04:52:45;;;;;;;5.18;3.08;;;12.80;99.90;;;;;;5098101;28;20047;-64
2023/09/22 04:55:11;;;;;;;4.53;2.53;;;12.70;99.90;;;;;;5081631;28;20459;-64
2023/09/22 04:57:38;;;;;;;4.93;2.83;;;12.70;99.90;;;;;;5113572;28;20055;-64
2023/09/22 05:00:12;;;;;;;5.22;3.17;;;12.70;99.90;;;;;;5097626;28;20122;-64
2023/09/22 05:02:38;;;;;;;4.43;2.72;;;12.60;99.90;;;;;;5097585;28;20402;-65
2023/09/22 05:05:04;;;;;;;5.15;2.92;;;12.60;99.90;;;;;;5101207;28;20038;-64
2023/09/22 05:07:30;;;;;;;5.60;2.80;;;12.50;99.90;;;;;;5096696;28;20071;-64
2023/09/22 05:09:59;;;;;;;4.68;2.58;;;12.50;99.90;;;;;;5099920;28;20492;-64
2023/09/22 05:12:25;;;;;;;6.47;3.90;;;12.50;99.90;;;;;;5078206;28;20067;-64
2023/09/22 05:14:50;;;;;;;5.65;3.47;;;12.50;99.90;;;;;;5079384;28;20141;-64
2023/09/22 05:17:16;;;;;;;8.68;4.97;;;12.50;99.90;;;;;;5097417;28;20035;-64
2023/09/22 05:19:42;;;;;;;5.60;3.55;;;12.40;99.90;;;;;;5100347;28;20036;-63
2023/09/22 05:22:08;;;;;;;6.82;3.88;;;12.50;99.90;;;;;;5082304;28;20135;-64
2023/09/22 05:24:34;;;;;;;12.02;4.57;;;12.50;99.90;;;;;;5095276;28;20064;-65
2023/09/22 05:26:59;;;;;;;5.03;2.97;;;12.60;99.90;;;;;;5092923;28;20088;-65
2023/09/22 05:29:25;;;;;;;7.53;3.90;;;12.60;99.90;;;;;;5093774;28;20118;-65
2023/09/22 05:31:51;;;;;;;8.70;4.38;;;12.50;99.90;;;;;;5097869;28;20118;-65
2023/09/22 05:34:17;;;;;;;7.97;4.40;;;12.60;99.90;;;;;;5097945;28;20036;-65
2023/09/22 05:36:43;;;;;;;6.13;3.88;;;12.50;99.90;;;;;;5094950;28;20347;-65
2023/09/22 05:39:10;;;;;;;6.13;3.45;;;12.50;99.90;;;;;;5095598;28;20036;-65
2023/09/22 05:41:36;;;;;;;9.00;4.45;;;12.60;99.90;;;;;;5099697;27;20119;-64
2023/09/22 05:44:02;;;;;;;8.48;4.18;;;12.60;99.90;;;;;;5101274;27;20044;-64
2023/09/22 05:46:31;;;;;;;6.40;3.83;;;12.60;99.90;;;;;;5104041;27;20042;-65
2023/09/22 05:48:57;;;;;;;8.45;4.03;;;12.60;99.90;;;;;;5085870;28;20369;-64
2023/09/22 05:51:23;;;;;;;6.80;3.88;;;12.60;99.90;;;;;;5099094;27;20358;-65
2023/09/22 05:53:52;;;;;;;6.82;3.80;;;12.70;99.90;;;;;;5105865;27;20040;-63
2023/09/22 05:56:18;;;;;;;5.03;2.85;;;12.60;99.90;;;;;;5098418;28;20042;-64
2023/09/22 05:58:44;;;;;;;5.55;3.55;;;12.60;99.90;;;;;;5094581;28;21362;-63
2023/09/22 06:01:11;;;;;;;11.02;3.85;;;12.60;99.90;;;;;;5093345;28;20676;-63
2023/09/22 06:03:38;;;;;;;5.28;2.90;;;12.60;99.90;;;;;;5098830;28;20039;-64
2023/09/22 06:06:06;;;;;;;4.05;2.47;;;12.60;99.90;;;;;;5098578;28;20128;-64
2023/09/22 06:08:31;;;;;;;5.70;3.58;;;12.70;99.90;;;;;;5078486;28;20053;-63
2023/09/22 06:14:03;;;;;;;4.17;2.70;;;12.70;99.90;;;;;;5022343;28;20567;-64
2023/09/22 06:16:30;;;;;;;5.47;2.95;;;12.70;99.90;;;;;;5020725;28;20379;-63
2023/09/22 06:18:56;;;;;;;4.95;3.10;;;12.80;99.90;;;;;;5041099;28;20049;-64
2023/09/22 06:21:22;;;;;;;4.45;2.65;;;12.80;99.90;;;;;;5077169;28;20473;-63
2023/09/22 06:23:49;;;;;;;4.90;2.60;;;12.80;99.90;;;;;;5082419;28;20032;-63
2023/09/22 06:26:45;;;;;;;4.97;2.70;;;12.80;99.90;;;;;;5083952;28;20042;-64
2023/09/22 06:29:10;;;;;;;8.50;5.05;;;12.80;99.90;;;;;;5078196;28;20138;-64
2023/09/22 06:31:37;;;;;;;6.55;2.88;;;12.90;99.90;;;;;;5081859;28;20128;-63
2023/09/22 06:34:04;;;;;;;6.07;2.83;;;12.90;99.90;;;;;;5082940;28;20439;-64
2023/09/22 06:36:30;;;;;;;4.20;2.55;;;13.00;99.90;;;;;;5077858;28;20449;-64
2023/09/22 06:38:56;;;;;;;5.03;2.65;;;13.00;99.90;;;;;;5076965;28;20107;-64
2023/09/22 06:41:22;;;;;;;7.47;3.38;;;13.10;99.90;;;;;;5081346;28;20040;-64
2023/09/22 06:43:47;;;;;;;5.72;2.13;;;13.10;99.90;;;;;;5084658;28;20093;-64
2023/09/22 06:46:14;;;;;;;4.05;2.35;;;13.10;99.90;;;;;;5082454;28;20039;-64
2023/09/22 06:48:40;;;;;;;4.32;2.28;;;13.20;99.90;;;;;;5084686;28;20040;-64
2023/09/22 06:51:11;;;;;;;4.72;3.00;;;13.30;99.90;;;;;;5080197;28;20036;-64
2023/09/22 06:53:38;;;;;;;12.52;2.40;;;13.30;99.90;;;;;;5082303;28;20055;-64
2023/09/22 06:56:09;;;;;;;4.47;3.08;;;13.40;99.90;;;;;;5082224;28;20042;-65
2023/09/22 06:58:36;;;;;;;5.20;2.08;;;13.50;99.90;;;;;;5087398;28;20075;-64
2023/09/22 07:01:13;;;;;;;8.65;3.22;;;13.60;99.90;;;;;;5083431;28;20051;-64
2023/09/22 07:03:39;;;;;;;4.13;2.63;;;13.70;99.90;;;;;;5083866;28;20037;-64
2023/09/22 07:06:07;;;;;;;3.20;2.22;;;13.70;99.90;;;;;;5075628;28;20490;-64
2023/09/22 07:08:34;;;;;;;3.03;1.85;;;13.70;99.90;;;;;;5110007;27;20057;-64
2023/09/22 07:11:01;;;;;;;5.97;2.58;;;13.70;99.90;;;;;;5081656;28;20044;-64
2023/09/22 07:13:27;;;;;;;6.30;4.30;;;13.70;99.90;;;;;;5079554;28;20048;-64
2023/09/22 07:15:53;;;;;;;4.15;2.33;;;13.70;99.90;;;;;;5078050;28;20085;-64
2023/09/22 07:18:19;;;;;;;3.60;2.22;;;13.70;99.90;;;;;;5069230;28;20038;-64
2023/09/22 07:20:46;;;;;;;3.50;2.40;;;13.70;99.90;;;;;;5074975;28;20041;-64
2023/09/22 07:23:12;;;;;;;2.58;2.03;;;13.70;99.90;;;;;;5075916;28;20732;-64
2023/09/22 07:25:38;;;;;;;4.60;1.73;;;13.60;99.90;;;;;;5077966;28;20124;-64
2023/09/22 07:28:04;;;;;;;5.18;2.97;;;13.70;99.90;;;;;;5079124;28;20041;-64
2023/09/22 07:30:30;;;;;;;3.08;2.05;;;13.70;99.90;;;;;;5081113;28;20044;-64
2023/09/22 07:32:56;;;;;;;3.63;2.42;;;13.60;99.90;;;;;;5077911;28;20445;-64
2023/09/22 07:35:21;;;;;;;1.95;1.30;;;13.60;99.90;;;;;;5078335;28;20094;-64
2023/09/22 07:37:47;;;;;;;4.25;1.92;;;13.60;99.90;;;;;;5078453;28;20032;-64
2023/09/22 07:40:13;;;;;;;3.30;1.83;;;13.60;99.90;;;;;;5077245;28;20069;-64
2023/09/22 07:42:41;;;;;;;20.77;10.27;;;13.60;99.90;;;;;;5081648;28;20052;-64
2023/09/22 07:45:08;;;;;;;4.57;2.40;;;13.60;99.90;;;;;;5071595;28;20063;-64
2023/09/22 07:47:34;;;;;;;2.65;1.25;;;13.70;99.90;;;;;;5113240;27;20613;-64
2023/09/22 07:50:00;;;;;;;1.83;1.40;;;13.70;99.90;;;;;;5074138;28;20049;-64
2023/09/22 07:52:26;;;;;;;3.72;1.67;;;13.80;99.90;;;;;;5076264;28;20034;-64
2023/09/22 07:54:53;;;;;;;2.90;1.52;;;13.90;99.90;;;;;;5077398;28;20036;-64
2023/09/22 07:57:19;;;;;;;3.33;1.55;;;13.90;99.90;;;;;;5075123;28;20033;-64
2023/09/22 07:59:44;;;;;;;3.10;1.30;;;14.00;99.90;;;;;;5080365;28;20044;-64
2023/09/22 08:02:10;;;;;;;6.53;1.67;;;14.10;99.90;;;;;;5075524;28;20492;-64
2023/09/22 08:04:36;;;;;;;2.03;1.33;;;14.20;99.90;;;;;;5082707;28;20456;-64
2023/09/22 08:07:05;;;;;;;4.50;1.52;;;14.40;99.90;;;;;;5079453;28;20039;-64
2023/09/22 08:09:31;;;;;;;2.30;1.27;;;14.50;99.90;;;;;;5097949;28;20067;-64
2023/09/22 08:11:57;;;;;;;3.47;1.42;;;14.60;99.90;;;;;;5097329;28;20058;-64
2023/09/22 08:14:25;;;;;;;2.00;1.13;;;14.60;99.90;;;;;;5101741;28;20040;-64
2023/09/22 08:16:50;;;;;;;2.13;1.25;;;14.60;99.90;;;;;;5100722;28;20486;-64
2023/09/22 08:19:39;;;;;;;2.45;1.35;;;14.60;99.90;;;;;;5101976;28;20111;-64
2023/09/22 08:22:05;;;;;;;1.08;0.60;;;14.80;99.90;;;;;;5070698;28;20110;-64
2023/09/22 08:24:31;;;;;;;5.07;1.13;;;14.80;99.90;;;;;;5101905;28;20523;-64
2023/09/22 08:26:59;;;;;;;2.15;1.70;;;14.80;99.90;;;;;;5096952;28;20044;-64
2023/09/22 08:29:25;;;;;;;6.32;1.35;;;14.80;99.90;;;;;;5103964;28;20044;-64
2023/09/22 08:31:51;;;;;;;0.88;0.55;;;14.80;99.90;;;;;;5099371;28;20086;-64
2023/09/22 08:34:17;;;;;;;3.03;0.73;;;15.00;99.90;;;;;;5083391;28;20075;-64
2023/09/22 08:36:43;;;;;;;2.35;0.88;;;15.20;99.90;;;;;;5094553;28;20501;-64
2023/09/22 08:39:09;;;;;;;1.73;0.88;;;15.30;99.90;;;;;;5102762;28;20039;-64
2023/09/22 08:42:13;;;;;;;1.05;0.73;;;15.30;99.90;;;;;;5102278;28;20047;-65
2023/09/22 08:45:21;;;;;;;5.38;1.13;;;15.40;99.90;;;;;;5092186;28;20533;-64
2023/09/22 08:47:48;;;;;;;1.45;0.40;;;15.70;99.90;;;;;;5099602;28;20069;-64
2023/09/22 08:50:19;;;;;;;1.17;0.47;;;16.10;99.90;;;;;;5082526;28;20055;-65
2023/09/22 08:53:05;;;;;;;0.73;0.30;;;16.20;99.90;;;;;;5095779;28;20081;-66
2023/09/22 08:55:30;;;;;;;0.70;0.40;;;16.10;99.90;;;;;;5082745;28;20419;-66
2023/09/22 08:57:56;;;;;;;0.95;0.47;;;16.20;99.90;;;;;;5099399;28;20044;-65
2023/09/22 09:00:48;;;;;;;0.20;0.20;;;16.10;99.90;;;;;;5118319;27;20426;-65
2023/09/22 09:03:14;;;;;;;0.52;0.15;;;15.90;99.90;;;;;;5114777;28;20054;-65
2023/09/22 09:05:40;;;;;;;0.70;0.40;;;15.70;99.90;;;;;;5100874;28;20043;-65
2023/09/22 09:08:14;;;;;;;0.10;0.10;;;15.60;99.90;;;;;;5092534;28;20446;-65
2023/09/22 09:10:42;;;;;;;0.35;0.13;;;15.60;99.90;;;;;;5095895;28;20058;-65
2023/09/22 09:13:13;;;;;;;0.20;0.20;;;15.60;99.90;;;;;;5095458;28;20522;-65
2023/09/22 09:15:45;;;;;;;0.90;0.32;;;15.80;99.90;;;;;;5104050;28;20100;-65
2023/09/22 09:18:12;;;;;;;0.40;0.20;;;16.30;99.90;;;;;;5080966;28;20043;-64
2023/09/22 09:20:43;;;;;;;1.83;0.28;;;17.10;99.90;;;;;;5098467;28;20492;-65
2023/09/22 09:23:17;;;;;;;0.60;0.32;;;18.30;99.90;;;;;;5103009;28;20079;-65
2023/09/22 09:25:50;;;;;;;0.10;0.10;;;19.10;99.90;;;;;;5105730;28;20040;-65
2023/09/22 09:28:17;;;;;;;0.10;0.10;;;19.40;99.90;;;;;;5083556;28;20046;-65
2023/09/22 09:30:56;;;;;;;0.25;0.20;;;19.40;99.90;;;;;;5101418;28;20463;-65
2023/09/22 09:33:22;;;;;;;0.32;0.20;;;19.80;99.90;;;;;;5103022;28;20487;-65
2023/09/22 09:35:49;;;;;;;1.02;0.32;;;20.40;99.90;;;;;;5101582;28;20107;-65
2023/09/22 09:38:17;;;;;;;0.38;0.20;;;20.90;99.90;;;;;;5104259;28;20574;-65
2023/09/22 09:40:43;;;;;;;0.20;0.10;;;21.20;99.90;;;;;;5102497;28;20680;-65
2023/09/22 09:43:12;;;;;;;0.43;0.17;;;21.40;99.90;;;;;;5101973;28;20032;-66
2023/09/22 09:45:46;;;;;;;0.28;0.00;;;21.50;99.90;;;;;;5097817;28;20109;-66
2023/09/22 09:48:15;;;;;;;0.40;0.10;;;21.50;99.90;;;;;;5103369;28;20088;-66
2023/09/22 09:50:51;;;;;;;0.15;0.10;;;21.70;99.90;;;;;;5099589;28;20044;-66
2023/09/22 09:53:27;;;;;;;0.60;0.17;;;22.20;99.90;;;;;;5103726;28;20437;-65
2023/09/22 09:56:02;;;;;;;1.17;0.13;;;22.60;99.90;;;;;;5097531;28;20044;-66
2023/09/22 09:58:32;;;;;;;0.15;0.00;;;22.90;99.90;;;;;;5104058;28;20044;-65
2023/09/22 10:01:00;;;;;;;0.00;0.00;;;23.20;99.90;;;;;;5082996;28;20193;-66
2023/09/22 10:03:27;;;;;;;0.00;0.00;;;23.10;99.90;;;;;;5105857;28;20446;-65
2023/09/22 10:05:55;;;;;;;0.17;0.05;;;23.30;99.90;;;;;;5083911;28;20508;-66
2023/09/22 10:08:23;;;;;;;0.20;0.00;;;23.60;99.90;;;;;;5101538;28;20411;-66
2023/09/22 10:10:51;;;;;;;0.85;0.10;;;23.70;99.90;;;;;;5101502;28;20058;-66
2023/09/22 10:13:17;;;;;;;0.22;0.10;;;23.90;99.90;;;;;;5104720;28;20039;-66
2023/09/22 10:15:58;;;;;;;0.00;0.00;;;23.90;99.90;;;;;;5099005;28;20482;-66
2023/09/22 10:18:50;;;;;;;0.00;0.00;;;24.10;99.90;;;;;;5105047;28;20660;-66
2023/09/22 10:21:38;;;;;;;0.10;0.00;;;24.20;99.90;;;;;;5099494;28;20046;-67
2023/09/22 10:24:24;;;;;;;0.10;0.00;;;24.30;99.90;;;;;;5103239;28;20051;-67
2023/09/22 10:26:55;;;;;;;0.10;0.10;;;24.30;99.90;;;;;;5095219;28;20050;-67
2023/09/22 10:29:34;;;;;;;0.10;0.00;;;24.10;99.90;;;;;;5086798;28;20721;-67
2023/09/22 10:32:27;;;;;;;0.30;0.00;;;24.20;99.90;;;;;;5103086;28;20161;-67
2023/09/22 10:35:18;;;;;;;3.00;0.10;;;24.10;99.90;;;;;;5104634;28;20040;-68
2023/09/22 10:38:01;;;;;;;0.28;0.10;;;24.10;99.90;;;;;;5082524;28;20055;-68
2023/09/22 10:40:26;;;;;;;2.30;0.15;;;24.30;99.90;;;;;;5098838;28;20032;-68
2023/09/22 10:42:52;;;;;;;0.10;0.00;;;24.60;99.90;;;;;;5099809;28;20475;-68
2023/09/22 10:45:28;;;;;;;0.28;0.10;;;24.90;99.90;;;;;;5082528;28;20075;-68
2023/09/22 10:47:56;;;;;;;0.35;0.00;;;24.50;99.90;;;;;;5100766;28;20835;-68
2023/09/22 10:50:27;;;;;;;0.82;0.10;;;23.30;99.90;;;;;;5104660;28;20348;-68
2023/09/22 10:53:02;;;;;;;0.00;0.00;;;22.20;99.90;;;;;;5093880;28;20078;-68
2023/09/22 10:55:37;;;;;;;0.10;0.00;;;21.20;99.90;;;;;;5098541;28;20083;-68
2023/09/22 10:58:05;;;;;;;0.52;0.10;;;20.60;99.90;;;;;;5083329;28;20059;-68
2023/09/22 11:00:38;;;;;;;0.32;0.10;;;20.60;99.90;;;;;;5120044;27;20129;-68
2023/09/22 11:03:11;;;;;;;0.10;0.00;;;21.20;99.90;;;;;;5098602;28;20044;-68
2023/09/22 11:05:38;;;;;;;0.00;0.00;;;22.00;99.90;;;;;;5106454;28;20044;-68
2023/09/22 11:08:19;;;;;;;0.10;0.00;;;22.60;99.90;;;;;;5097939;28;20083;-68
2023/09/22 11:10:50;;;;;;;0.00;0.00;;;23.00;99.90;;;;;;5084378;28;20036;-68
2023/09/22 11:13:16;;;;;;;0.80;0.17;;;22.80;99.90;;;;;;5098623;28;20126;-68
2023/09/22 11:15:50;;;;;;;0.15;0.03;;;23.00;99.90;;;;;;5084629;28;20036;-66
2023/09/22 11:18:26;;;;;;;;;;;22.80;99.90;;;;;;5114578;27;20038;-68
2023/09/22 11:20:57;;;;;;;0.77;0.10;;;22.20;99.90;;;;;;5081394;28;20380;-68
2023/09/22 11:23:27;;;;;;;0.00;0.00;;;22.70;99.90;;;;;;5079467;28;20050;-68
2023/09/22 11:25:58;;;;;;;0.10;0.00;;;23.00;99.90;;;;;;5100143;28;20182;-68
2023/09/22 11:28:24;;;;;;;0.15;0.00;;;23.30;99.90;;;;;;5097672;28;20407;-68
2023/09/22 11:30:53;;;;;;;0.17;0.03;;;23.10;99.90;;;;;;5103499;28;20043;-68
2023/09/22 11:33:19;;;;;;;0.15;0.05;;;22.60;99.90;;;;;;5116350;27;20109;-67
2023/09/22 11:35:45;;;;;;;0.10;0.00;;;21.80;99.90;;;;;;5099443;28;20713;-67
2023/09/22 11:38:31;;;;;;;0.10;0.00;;;21.20;99.90;;;;;;5081461;28;20128;-67
2023/09/22 11:41:09;;;;;;;0.57;0.00;;;20.60;99.90;;;;;;5096391;28;20481;-66
2023/09/22 11:43:49;;;;;;;0.00;0.00;;;20.30;99.90;;;;;;5115489;27;20048;-67
2023/09/22 11:46:16;;;;;;;0.10;0.03;;;20.30;99.90;;;;;;5083184;28;20078;-67
2023/09/22 11:49:01;;;;;;;0.10;0.00;;;20.30;99.90;;;;;;5101567;28;20122;-68
2023/09/22 11:51:51;;;;;;;0.57;0.10;;;20.30;99.90;;;;;;5078259;28;20380;-68
2023/09/22 11:54:52;;;;;;;0.20;0.00;;;20.50;99.90;;;;;;5106754;27;20050;-68
2023/09/22 11:57:19;;;;;;;0.13;0.00;;;20.30;99.90;;;;;;5097237;28;20376;-68
2023/09/22 11:59:47;;;;;;;0.28;0.17;;;19.90;99.90;;;;;;5112889;27;20040;-68
2023/09/22 12:02:12;;;;;;;0.10;0.03;;;20.20;99.90;;;;;;5096527;28;20358;-68
2023/09/22 12:04:38;;;;;;;0.13;0.10;;;20.80;99.90;;;;;;5096965;28;20051;-68
2023/09/22 12:07:04;;;;;;;0.30;0.10;;;20.90;99.90;;;;;;5097796;28;20396;-68
2023/09/22 12:09:29;;;;;;;0.45;0.10;;;21.10;99.90;;;;;;5080094;28;20053;-68
2023/09/22 12:11:55;;;;;;;0.10;0.10;;;21.10;99.90;;;;;;5077375;28;20124;-69
2023/09/22 12:14:22;;;;;;;0.10;0.03;;;20.80;99.90;;;;;;5078710;28;20496;-68
2023/09/22 12:16:49;;;;;;;0.00;0.00;;;20.50;99.90;;;;;;5067839;28;20032;-68
2023/09/22 12:19:15;;;;;;;0.50;0.13;;;20.00;99.90;;;;;;5080317;28;20040;-68
2023/09/22 12:21:41;;;;;;;0.00;0.00;;;19.70;99.90;;;;;;5077248;28;20097;-67
2023/09/22 12:24:07;;;;;;;0.32;0.10;;;19.40;99.90;;;;;;5080949;28;20060;-67
2023/09/22 12:26:36;;;;;;;0.10;0.00;;;19.10;99.90;;;;;;5072492;28;20392;-68
2023/09/22 12:29:04;;;;;;;0.20;0.00;;;18.80;99.90;;;;;;5082407;28;20032;-67
2023/09/22 12:31:29;;;;;;;0.70;0.00;;;18.60;99.90;;;;;;5063469;28;20048;-67
2023/09/22 12:33:56;;;;;;;1.17;0.08;;;18.40;99.90;;;;;;5074072;28;20044;-68
2023/09/22 12:36:21;;;;;;;0.10;0.03;;;18.20;99.90;;;;;;5074370;28;20076;-68
2023/09/22 12:38:48;;;;;;;0.20;0.10;;;18.20;99.90;;;;;;5080338;28;20133;-67
2023/09/22 12:41:14;;;;;;;0.08;0.00;;;18.20;99.90;;;;;;5074150;28;20047;-67
2023/09/22 12:43:40;;;;;;;0.10;0.00;;;18.10;99.90;;;;;;5080131;28;20039;-67
2023/09/22 12:46:09;;;;;;;0.03;0.00;;;18.00;99.90;;;;;;5073191;28;20483;-68
2023/09/22 12:48:39;;;;;;;1.38;0.20;;;18.00;99.90;;;;;;5108278;27;20058;-67
2023/09/22 12:51:05;;;;;;;0.03;0.00;;;17.90;99.90;;;;;;5076864;28;20683;-67
2023/09/22 12:53:31;;;;;;;0.57;0.20;;;18.00;99.90;;;;;;5108774;27;20054;-67
2023/09/22 12:55:57;;;;;;;0.05;0.05;;;18.10;99.90;;;;;;5079887;28;20603;-67
2023/09/22 12:58:27;;;;;;;0.20;0.13;;;18.30;99.90;;;;;;5077122;28;20044;-67